createdAt,value
2022-08-17T00:02:26.412Z,6.18
2022-08-17T00:04:54.802Z,5.95
2022-08-17T00:07:21.562Z,6.78
2022-08-17T00:09:48.224Z,5.85
2022-08-17T00:12:42.997Z,5.88
2022-08-17T00:15:02.283Z,6.82
2022-08-17T00:17:29.122Z,5.70
2022-08-17T00:19:55.759Z,6.65
2022-08-17T00:22:33.972Z,6.38
2022-08-17T00:25:10.462Z,6.85
2022-08-17T00:27:37.125Z,6.53
2022-08-17T00:30:09.682Z,7.70
2022-08-17T00:33:13.959Z,9.30
2022-08-17T00:35:27.797Z,7.65
2022-08-17T00:37:55.473Z,7.43
2022-08-17T00:40:24.784Z,7.35
2022-08-17T00:42:53.379Z,8.25
2022-08-17T00:45:22.592Z,7.38
2022-08-17T00:47:49.578Z,8.73
2022-08-17T00:50:18.951Z,8.93
2022-08-17T00:52:53.229Z,8.02
2022-08-17T00:55:20.919Z,6.73
2022-08-17T00:57:55.527Z,7.38
2022-08-17T01:00:29.676Z,7.75
2022-08-17T01:03:00.435Z,6.78
2022-08-17T01:05:29.533Z,6.95
2022-08-17T01:07:57.238Z,6.85
2022-08-17T01:10:59.689Z,7.72
2022-08-17T01:13:18.082Z,7.93
2022-08-17T01:16:04.782Z,8.30
2022-08-17T01:18:32.691Z,8.02
2022-08-17T01:21:05.166Z,8.35
2022-08-17T01:23:32.023Z,8.73
2022-08-17T01:26:01.854Z,8.93
2022-08-17T01:28:33.650Z,8.13
2022-08-17T01:31:18.630Z,7.55
2022-08-17T01:33:45.562Z,7.60
2022-08-17T01:36:12.221Z,7.70
2022-08-17T01:38:39.557Z,7.25
2022-08-17T01:41:11.719Z,6.85
2022-08-17T01:44:00.659Z,7.97
2022-08-17T01:46:32.046Z,7.18
2022-08-17T01:48:59.168Z,7.47
2022-08-17T01:51:32.433Z,8.30
2022-08-17T01:54:05.216Z,8.45
2022-08-17T01:56:35.060Z,7.38
2022-08-17T01:59:01.746Z,6.30
2022-08-17T02:01:31.128Z,6.07
2022-08-17T02:04:00.777Z,6.32
2022-08-17T02:06:30.636Z,4.82
2022-08-17T02:09:02.824Z,6.93
2022-08-17T02:11:32.358Z,5.95
2022-08-17T02:14:03.372Z,5.28
2022-08-17T02:16:36.856Z,5.57
2022-08-17T02:19:09.930Z,6.28
2022-08-17T02:21:38.354Z,6.07
2022-08-17T02:24:08.308Z,6.15
2022-08-17T02:26:35.220Z,5.78
2022-08-17T02:29:01.979Z,6.07
2022-08-17T02:31:30.036Z,5.60
2022-08-17T02:34:04.021Z,5.72
2022-08-17T02:36:35.605Z,6.00
2022-08-17T02:39:04.782Z,5.57
2022-08-17T02:41:31.711Z,5.65
2022-08-17T02:43:58.686Z,4.88
2022-08-17T02:46:25.849Z,4.82
2022-08-17T02:48:52.513Z,4.47
2022-08-17T02:51:20.033Z,4.35
2022-08-17T02:53:46.859Z,4.13
2022-08-17T02:56:13.632Z,4.55
2022-08-17T02:58:40.275Z,4.80
2022-08-17T03:01:09.189Z,4.22
2022-08-17T03:03:37.173Z,4.13
2022-08-17T03:06:04.558Z,4.80
2022-08-17T03:08:31.592Z,4.82
2022-08-17T03:10:58.125Z,4.53
2022-08-17T03:13:24.878Z,4.53
2022-08-17T03:15:51.788Z,4.97
2022-08-17T03:18:24.793Z,5.85
2022-08-17T03:20:57.890Z,5.22
2022-08-17T03:23:25.984Z,5.38
2022-08-17T03:25:54.310Z,4.93
2022-08-17T03:28:21.954Z,5.25
2022-08-17T03:30:49.310Z,4.80
2022-08-17T03:33:16.992Z,4.85
2022-08-17T03:35:44.381Z,5.03
2022-08-17T03:38:12.306Z,4.60
2022-08-17T03:40:57.135Z,4.28
2022-08-17T03:43:25.406Z,3.80
2022-08-17T03:46:20.731Z,4.72
2022-08-17T03:49:15.057Z,4.30
2022-08-17T03:52:18.928Z,4.35
2022-08-17T03:55:07.906Z,4.40
2022-08-17T03:57:35.386Z,4.70
2022-08-17T04:00:02.934Z,3.95
2022-08-17T04:02:38.733Z,3.85
2022-08-17T04:05:05.762Z,3.95
2022-08-17T04:07:32.305Z,3.70
2022-08-17T04:09:59.656Z,3.70
2022-08-17T04:12:30.813Z,4.13
2022-08-17T04:14:58.235Z,3.38
2022-08-17T04:17:29.378Z,3.72
2022-08-17T04:19:56.375Z,3.63
2022-08-17T04:22:30.099Z,3.83
2022-08-17T04:25:17.675Z,3.30
2022-08-17T04:27:44.513Z,3.15
2022-08-17T04:30:12.199Z,4.03
2022-08-17T04:33:04.850Z,3.35
2022-08-17T04:35:45.843Z,3.35
2022-08-17T04:38:17.957Z,3.58
2022-08-17T04:41:03.535Z,3.47
2022-08-17T04:43:32.808Z,3.47
2022-08-17T04:46:06.238Z,3.65
2022-08-17T04:48:42.853Z,3.53
2022-08-17T04:51:25.136Z,3.22
2022-08-17T04:53:55.756Z,3.35
2022-08-17T04:56:25.033Z,3.80
2022-08-17T04:58:54.040Z,3.80
2022-08-17T05:01:24.299Z,4.13
2022-08-17T05:03:56.499Z,4.30
2022-08-17T05:06:23.657Z,4.18
2022-08-17T05:08:50.244Z,3.90
2022-08-17T05:11:17.299Z,3.97
2022-08-17T05:13:44.790Z,4.40
2022-08-17T05:16:11.814Z,4.35
2022-08-17T05:18:39.053Z,5.13
2022-08-17T05:21:07.041Z,4.70
2022-08-17T05:23:42.990Z,4.78
2022-08-17T05:26:17.966Z,4.20
2022-08-17T05:28:59.401Z,3.85
2022-08-17T05:31:26.959Z,3.63
2022-08-17T05:33:53.701Z,3.90
2022-08-17T05:36:37.870Z,3.88
2022-08-17T05:39:07.570Z,4.35
2022-08-17T05:41:34.087Z,4.35
2022-08-17T05:44:00.697Z,4.30
2022-08-17T05:46:38.779Z,4.63
2022-08-17T05:49:11.103Z,4.88
2022-08-17T05:51:52.886Z,4.47
2022-08-17T05:54:49.114Z,5.00
2022-08-17T05:57:27.640Z,3.63
2022-08-17T06:00:03.043Z,3.88
2022-08-17T06:02:51.330Z,3.80
2022-08-17T06:05:45.704Z,4.07
2022-08-17T06:08:21.983Z,3.72
2022-08-17T06:11:20.101Z,3.75
2022-08-17T06:14:01.417Z,4.82
2022-08-17T06:16:35.450Z,4.28
2022-08-17T06:19:11.173Z,4.32
2022-08-17T06:21:41.603Z,4.30
2022-08-17T06:24:35.080Z,4.28
2022-08-17T06:27:12.452Z,4.13
2022-08-17T06:30:05.394Z,4.57
2022-08-17T06:32:32.125Z,4.97
2022-08-17T06:35:01.000Z,5.03
2022-08-17T06:37:37.199Z,4.15
2022-08-17T06:40:37.475Z,4.22
2022-08-17T06:43:22.471Z,5.05
2022-08-17T06:45:57.432Z,4.47
2022-08-17T06:48:56.447Z,4.88
2022-08-17T06:51:27.845Z,4.22
2022-08-17T06:54:05.225Z,4.20
2022-08-17T06:56:52.694Z,4.50
2022-08-17T06:59:54.193Z,4.88
2022-08-17T07:02:29.376Z,4.45
2022-08-17T07:05:09.819Z,4.30
2022-08-17T07:07:58.217Z,4.90
2022-08-17T07:10:26.107Z,4.63
2022-08-17T07:12:57.876Z,4.80
2022-08-17T07:15:38.829Z,4.35
2022-08-17T07:18:05.475Z,4.25
2022-08-17T07:20:33.420Z,4.20
2022-08-17T07:23:06.074Z,3.72
2022-08-17T07:25:33.027Z,4.38
2022-08-17T07:28:04.244Z,4.15
2022-08-17T07:30:46.839Z,3.75
2022-08-17T07:33:34.921Z,3.55
2022-08-17T07:36:01.635Z,3.70
2022-08-17T07:38:32.091Z,3.58
2022-08-17T07:41:02.758Z,4.25
2022-08-17T07:43:40.822Z,3.63
2022-08-17T07:46:41.160Z,3.75
2022-08-17T07:49:11.129Z,3.88
2022-08-17T07:51:43.767Z,4.28
2022-08-17T07:54:16.595Z,4.07
2022-08-17T07:56:47.781Z,4.53
2022-08-17T07:59:23.100Z,4.03
2022-08-17T08:01:57.932Z,4.60
2022-08-17T08:04:59.741Z,4.10
2022-08-17T08:07:34.774Z,3.70
2022-08-17T08:10:29.858Z,4.53
2022-08-17T08:13:14.549Z,4.85
2022-08-17T08:15:53.741Z,3.97
2022-08-17T08:18:54.916Z,4.30
2022-08-17T08:21:29.043Z,3.90
2022-08-17T08:24:07.990Z,4.53
2022-08-17T08:26:49.154Z,4.30
2022-08-17T08:29:38.179Z,3.67
2022-08-17T08:32:29.089Z,4.10
2022-08-17T08:35:10.368Z,4.35
2022-08-17T08:38:07.866Z,4.10
2022-08-17T08:41:02.410Z,4.07
2022-08-17T08:44:01.313Z,4.13
2022-08-17T08:46:47.055Z,3.95
2022-08-17T08:52:48.165Z,4.18
2022-08-17T08:55:42.603Z,3.67
2022-08-17T08:58:41.262Z,3.80
2022-08-17T09:01:18.667Z,3.97
2022-08-17T09:03:53.352Z,4.00
2022-08-17T09:06:39.831Z,3.83
2022-08-17T09:09:18.876Z,4.95
2022-08-17T09:12:01.257Z,4.28
2022-08-17T09:14:46.721Z,3.88
2022-08-17T09:17:18.317Z,4.03
2022-08-17T09:20:11.198Z,3.85
2022-08-17T09:22:44.983Z,4.40
2022-08-17T09:25:28.353Z,4.47
2022-08-17T09:28:06.698Z,4.47
2022-08-17T09:30:45.635Z,4.55
2022-08-17T09:33:17.617Z,4.30
2022-08-17T09:36:08.456Z,4.80
2022-08-17T09:38:52.725Z,5.32
2022-08-17T09:41:33.490Z,4.63
2022-08-17T09:44:10.754Z,4.90
2022-08-17T09:47:01.402Z,4.72
2022-08-17T09:49:38.165Z,4.65
2022-08-17T09:52:18.623Z,4.60
2022-08-17T09:54:46.740Z,4.88
2022-08-17T09:57:32.516Z,4.93
2022-08-17T10:00:25.618Z,4.88
2022-08-17T10:03:16.287Z,5.03
2022-08-17T10:05:56.401Z,4.22
2022-08-17T10:08:42.306Z,3.92
2022-08-17T10:11:50.602Z,4.03
2022-08-17T10:14:46.893Z,4.68
2022-08-17T10:17:45.539Z,4.05
2022-08-17T10:20:17.548Z,4.95
2022-08-17T10:23:15.061Z,4.57
2022-08-17T10:26:04.668Z,4.28
2022-08-17T10:28:57.242Z,4.13
2022-08-17T10:31:35.897Z,4.15
2022-08-17T10:34:17.262Z,4.22
2022-08-17T10:37:05.684Z,5.28
2022-08-17T10:39:52.708Z,5.32
2022-08-17T10:42:48.908Z,5.18
2022-08-17T10:45:28.092Z,4.55
2022-08-17T10:48:28.390Z,5.07
2022-08-17T10:51:01.068Z,3.72
2022-08-17T10:53:33.652Z,4.63
2022-08-17T10:56:12.943Z,4.03
2022-08-17T10:58:47.477Z,4.47
2022-08-17T11:01:14.268Z,4.03
2022-08-17T11:03:54.978Z,4.45
2022-08-17T11:07:03.333Z,4.53
2022-08-17T11:09:44.942Z,4.60
2022-08-17T11:12:33.115Z,3.65
2022-08-17T11:15:22.175Z,4.13
2022-08-17T11:18:01.569Z,3.70
2022-08-17T11:20:31.187Z,3.80
2022-08-17T11:23:10.088Z,4.25
2022-08-17T11:25:41.898Z,3.95
2022-08-17T11:28:19.496Z,4.22
2022-08-17T11:30:50.825Z,4.43
2022-08-17T11:33:29.342Z,4.40
2022-08-17T11:36:19.135Z,4.22
2022-08-17T11:38:59.037Z,4.15
2022-08-17T11:41:55.225Z,3.47
2022-08-17T11:44:40.699Z,4.18
2022-08-17T11:50:57.526Z,4.20
2022-08-17T11:53:37.154Z,3.88
2022-08-17T11:56:41.032Z,3.83
2022-08-17T11:59:46.074Z,3.80
2022-08-17T12:02:36.094Z,3.60
2022-08-17T12:05:14.790Z,4.15
2022-08-17T12:08:04.310Z,3.40
2022-08-17T12:10:35.417Z,3.97
2022-08-17T12:13:15.498Z,3.97
2022-08-17T12:15:48.750Z,4.00
2022-08-17T12:18:28.991Z,4.13
2022-08-17T12:21:24.988Z,3.97
2022-08-17T12:23:55.619Z,3.63
2022-08-17T12:26:27.122Z,4.00
2022-08-17T12:29:01.546Z,3.67
2022-08-17T12:31:35.067Z,3.67
2022-08-17T12:34:04.029Z,4.00
2022-08-17T12:36:32.607Z,4.15
2022-08-17T12:39:14.000Z,3.75
2022-08-17T12:41:45.188Z,3.95
2022-08-17T12:44:12.297Z,3.92
2022-08-17T12:47:00.625Z,4.20
2022-08-17T12:49:35.254Z,4.15
2022-08-17T12:52:13.977Z,4.63
2022-08-17T12:54:46.649Z,4.35
2022-08-17T12:57:20.647Z,4.22
2022-08-17T12:59:54.799Z,3.60
2022-08-17T13:02:37.631Z,3.90
2022-08-17T13:05:05.343Z,3.83
2022-08-17T13:07:44.727Z,4.30
2022-08-17T13:10:33.284Z,4.28
2022-08-17T13:13:05.227Z,4.07
2022-08-17T13:15:44.701Z,4.93
2022-08-17T13:18:36.584Z,4.13
2022-08-17T13:21:03.303Z,4.43
2022-08-17T13:23:31.343Z,4.60
2022-08-17T13:26:15.879Z,4.32
2022-08-17T13:28:51.683Z,4.15
2022-08-17T13:31:42.834Z,3.78
2022-08-17T13:34:33.407Z,4.55
2022-08-17T13:37:21.845Z,3.92
2022-08-17T13:39:49.965Z,4.38
2022-08-17T13:42:48.115Z,3.85
2022-08-17T13:45:35.970Z,4.60
2022-08-17T13:48:12.364Z,4.72
2022-08-17T13:51:02.606Z,3.53
2022-08-17T13:53:36.382Z,3.40
2022-08-17T13:56:33.521Z,4.15
2022-08-17T13:59:12.320Z,4.50
2022-08-17T14:01:53.417Z,4.03
2022-08-17T14:04:31.814Z,4.07
2022-08-17T14:07:03.051Z,5.15
2022-08-17T14:09:37.357Z,3.78
2022-08-17T14:12:10.592Z,4.15
2022-08-17T14:14:37.730Z,4.53
2022-08-17T14:17:04.531Z,3.90
2022-08-17T14:19:31.170Z,4.40
2022-08-17T14:21:59.073Z,4.10
2022-08-17T14:24:29.213Z,4.15
2022-08-17T14:26:56.808Z,4.00
2022-08-17T14:29:25.809Z,4.32
2022-08-17T14:31:54.516Z,4.07
2022-08-17T14:34:22.746Z,4.22
2022-08-17T14:36:49.446Z,4.22
2022-08-17T14:39:16.725Z,4.22
2022-08-17T14:41:43.663Z,3.90
2022-08-17T14:44:13.763Z,3.92
2022-08-17T14:46:42.129Z,3.97
2022-08-17T14:49:12.498Z,4.57
2022-08-17T14:51:43.580Z,4.47
2022-08-17T14:54:33.370Z,4.55
2022-08-17T14:57:22.275Z,4.47
2022-08-17T14:59:45.911Z,4.82
2022-08-17T15:02:13.683Z,4.32
2022-08-17T15:04:45.372Z,5.57
2022-08-17T15:07:12.438Z,4.47
2022-08-17T15:09:39.223Z,5.18
2022-08-17T15:12:09.177Z,4.45
2022-08-17T15:14:36.528Z,5.55
2022-08-17T15:17:04.258Z,4.85
2022-08-17T15:19:31.093Z,5.53
2022-08-17T15:21:57.829Z,4.63
2022-08-17T15:24:24.689Z,5.13
2022-08-17T15:26:51.611Z,5.40
2022-08-17T15:29:18.350Z,5.13
2022-08-17T15:31:45.027Z,5.60
2022-08-17T15:34:11.881Z,5.45
2022-08-17T15:36:38.912Z,4.35
2022-08-17T15:39:15.808Z,5.95
2022-08-17T15:41:47.340Z,5.63
2022-08-17T15:44:30.086Z,5.68
2022-08-17T15:46:59.524Z,5.07
2022-08-17T15:49:26.182Z,5.05
2022-08-17T15:51:52.948Z,5.47
2022-08-17T15:54:22.882Z,5.80
2022-08-17T15:56:50.696Z,5.60
2022-08-17T15:59:17.347Z,6.13
2022-08-17T16:03:01.483Z,5.75
2022-08-17T16:04:31.887Z,4.75
2022-08-17T16:06:59.630Z,6.05
2022-08-17T16:09:26.302Z,5.38
2022-08-17T16:11:55.457Z,5.80
2022-08-17T16:14:24.263Z,5.32
2022-08-17T16:16:50.987Z,5.40
2022-08-17T16:19:17.603Z,5.82
2022-08-17T16:21:44.156Z,5.70
2022-08-17T16:24:13.655Z,6.20
2022-08-17T16:26:42.488Z,5.93
2022-08-17T16:29:09.173Z,5.53
2022-08-17T16:31:37.564Z,7.63
2022-08-17T16:34:17.924Z,6.32
2022-08-17T16:36:55.491Z,5.35
2022-08-17T16:39:27.634Z,5.15
2022-08-17T16:41:55.905Z,4.70
2022-08-17T16:44:22.726Z,5.03
2022-08-17T16:46:50.265Z,5.63
2022-08-17T16:49:24.395Z,5.95
2022-08-17T16:52:04.263Z,6.15
2022-08-17T16:54:30.829Z,6.43
2022-08-17T16:56:57.453Z,7.10
2022-08-17T16:59:40.280Z,6.30
2022-08-17T17:02:13.611Z,6.97
2022-08-17T17:04:48.015Z,6.72
2022-08-17T17:07:36.190Z,7.47
2022-08-17T17:10:08.333Z,5.43
2022-08-17T17:13:02.118Z,5.75
2022-08-17T17:15:28.445Z,5.95
2022-08-17T17:18:06.975Z,5.63
2022-08-17T17:20:47.722Z,5.28
2022-08-17T17:23:23.275Z,4.40
2022-08-17T17:26:17.076Z,2.53
2022-08-17T17:29:00.924Z,2.97
2022-08-17T17:31:37.598Z,3.35
2022-08-17T17:34:08.798Z,3.50
2022-08-17T17:36:50.759Z,4.13
2022-08-17T17:39:20.336Z,4.63
2022-08-17T17:41:57.883Z,4.93
2022-08-17T17:44:30.052Z,4.03
2022-08-17T17:46:59.465Z,4.15
2022-08-17T17:49:33.395Z,3.78
2022-08-17T17:52:22.608Z,4.47
2022-08-17T17:55:04.337Z,3.22
2022-08-17T17:57:37.530Z,3.30
2022-08-17T18:00:16.357Z,4.00
2022-08-17T18:03:20.690Z,3.15
2022-08-17T18:05:50.390Z,3.15
2022-08-17T18:08:48.996Z,2.97
2022-08-17T18:11:54.615Z,3.17
2022-08-17T18:14:38.921Z,2.95
2022-08-17T18:17:05.883Z,3.50
2022-08-17T18:19:32.907Z,3.22
2022-08-17T18:22:20.227Z,2.90
2022-08-17T18:24:54.070Z,3.28
2022-08-17T18:27:33.954Z,3.15
2022-08-17T18:30:29.793Z,2.75
2022-08-17T18:33:24.559Z,2.72
2022-08-17T18:35:58.791Z,2.60
2022-08-17T18:38:34.651Z,3.47
2022-08-17T18:41:19.200Z,2.65
2022-08-17T18:44:02.436Z,2.58
2022-08-17T18:46:36.688Z,3.20
2022-08-17T18:49:08.482Z,2.72
2022-08-17T18:51:42.869Z,3.22
2022-08-17T18:54:22.178Z,3.10
2022-08-17T18:56:51.484Z,2.88
2022-08-17T18:59:35.339Z,3.13
2022-08-17T19:02:28.275Z,2.83
2022-08-17T19:05:07.960Z,3.03
2022-08-17T19:07:36.823Z,2.85
2022-08-17T19:10:31.373Z,2.65
2022-08-17T19:13:12.315Z,3.08
2022-08-17T19:16:14.359Z,3.28
2022-08-17T19:18:43.455Z,3.45
2022-08-17T19:21:19.652Z,4.07
2022-08-17T19:23:59.086Z,3.15
2022-08-17T19:26:53.398Z,2.90
2022-08-17T19:29:22.424Z,2.97
2022-08-17T19:31:49.971Z,2.80
2022-08-17T19:34:33.323Z,2.58
2022-08-17T19:37:18.307Z,2.75
2022-08-17T19:39:48.056Z,2.47
2022-08-17T19:42:49.683Z,3.17
2022-08-17T19:45:42.184Z,3.20
2022-08-17T19:48:25.728Z,3.17
2022-08-17T19:50:53.151Z,3.03
2022-08-17T19:53:54.127Z,3.30
2022-08-17T19:59:07.209Z,3.33
2022-08-17T20:01:44.273Z,3.28
2022-08-17T20:04:31.865Z,3.28
2022-08-17T20:07:28.482Z,2.70
2022-08-17T20:10:05.543Z,2.70
2022-08-17T20:12:38.436Z,2.85
2022-08-17T20:15:07.871Z,3.83
2022-08-17T20:17:38.658Z,2.90
2022-08-17T20:20:43.876Z,3.03
2022-08-17T20:23:35.291Z,3.20
2022-08-17T20:26:22.179Z,3.33
2022-08-17T20:29:08.261Z,3.58
2022-08-17T20:31:50.293Z,3.92
2022-08-17T20:34:25.715Z,3.05
2022-08-17T20:37:03.822Z,3.17
2022-08-17T20:39:56.674Z,3.53
2022-08-17T20:42:23.534Z,3.25
2022-08-17T20:44:54.111Z,3.45
2022-08-17T20:47:31.933Z,3.65
2022-08-17T20:50:08.093Z,3.30
2022-08-17T20:52:41.290Z,3.13
2022-08-17T20:55:09.422Z,2.70
2022-08-17T20:57:36.075Z,3.22
2022-08-17T21:00:19.038Z,3.15
2022-08-17T21:02:51.310Z,3.05
2022-08-17T21:06:19.608Z,3.00
2022-08-17T21:08:55.192Z,2.78
2022-08-17T21:11:57.001Z,2.70
2022-08-17T21:14:38.050Z,3.10
2022-08-17T21:17:17.722Z,3.03
2022-08-17T21:20:10.744Z,3.08
2022-08-17T21:23:03.368Z,3.55
2022-08-17T21:26:02.974Z,3.25
2022-08-17T21:29:31.779Z,3.25
2022-08-17T21:31:59.398Z,3.75
2022-08-17T21:34:36.472Z,3.97
2022-08-17T21:37:28.545Z,3.17
2022-08-17T21:40:18.630Z,3.55
2022-08-17T21:42:47.720Z,3.40
2022-08-17T21:45:35.607Z,4.10
2022-08-17T21:48:13.978Z,3.53
2022-08-17T21:50:44.217Z,3.83
2022-08-17T21:53:27.049Z,3.33
2022-08-17T21:55:57.727Z,3.67
2022-08-17T21:58:32.319Z,3.70
2022-08-17T22:01:26.969Z,3.90
2022-08-17T22:04:00.012Z,3.60
2022-08-17T22:06:36.932Z,3.28
2022-08-17T22:09:09.607Z,4.00
2022-08-17T22:11:54.795Z,3.38
2022-08-17T22:14:51.519Z,3.50
2022-08-17T22:17:36.871Z,3.47
2022-08-17T22:20:08.143Z,3.03
2022-08-17T22:23:08.876Z,3.58
2022-08-17T22:25:38.933Z,3.40
2022-08-17T22:28:11.485Z,3.40
2022-08-17T22:30:42.585Z,2.90
2022-08-17T22:33:31.526Z,3.05
2022-08-17T22:36:35.173Z,3.83
2022-08-17T22:39:26.306Z,3.00
2022-08-17T22:42:02.373Z,3.33
2022-08-17T22:44:33.250Z,3.10
2022-08-17T22:47:26.470Z,2.83
2022-08-17T22:49:57.767Z,3.20
2022-08-17T22:53:02.985Z,3.28
2022-08-17T22:55:49.977Z,3.10
2022-08-17T22:58:38.658Z,4.03
2022-08-17T23:01:33.216Z,3.10
2022-08-17T23:04:06.959Z,2.97
2022-08-17T23:06:36.926Z,2.88
2022-08-17T23:09:05.898Z,3.42
2022-08-17T23:11:48.986Z,2.92
2022-08-17T23:14:19.636Z,3.15
2022-08-17T23:16:48.658Z,2.70
2022-08-17T23:19:18.605Z,3.50
2022-08-17T23:21:45.755Z,3.33
2022-08-17T23:24:21.580Z,2.85
2022-08-17T23:26:48.374Z,3.15
2022-08-17T23:29:14.948Z,3.05
2022-08-17T23:31:41.748Z,2.90
2022-08-17T23:34:13.128Z,3.63
2022-08-17T23:36:39.837Z,3.03
2022-08-17T23:39:07.089Z,2.70
2022-08-17T23:41:38.614Z,3.45
2022-08-17T23:44:06.504Z,2.58
2022-08-17T23:46:34.421Z,3.13
2022-08-17T23:49:01.160Z,3.50
2022-08-17T23:51:35.619Z,2.67
2022-08-17T23:54:12.606Z,3.10
2022-08-17T23:56:57.283Z,3.00
2022-08-17T23:59:23.952Z,3.67
